sensor_id;sensor_type;location;lat;lon;timestamp;pressure;altitude;pressure_sealevel;temperature;humidity
77410;BME280;66481;51.332;22.804;2023-08-01T00:01:25;98843.84;;;14.58;95.71
77410;BME280;66481;51.332;22.804;2023-08-01T00:05:26;98854.00;;;14.54;95.18
77410;BME280;66481;51.332;22.804;2023-08-01T00:09:27;98857.78;;;14.52;95.54
77410;BME280;66481;51.332;22.804;2023-08-01T00:13:29;98856.94;;;14.43;95.98
77410;BME280;66481;51.332;22.804;2023-08-01T00:17:30;98856.41;;;14.39;96.38
77410;BME280;66481;51.332;22.804;2023-08-01T00:21:31;98853.78;;;14.47;95.93
77410;BME280;66481;51.332;22.804;2023-08-01T00:25:33;98853.63;;;14.49;95.25
77410;BME280;66481;51.332;22.804;2023-08-01T00:29:34;98852.56;;;14.34;96.31
77410;BME280;66481;51.332;22.804;2023-08-01T00:33:35;98848.56;;;14.29;96.14
77410;BME280;66481;51.332;22.804;2023-08-01T00:37:37;98851.59;;;14.35;96.05
77410;BME280;66481;51.332;22.804;2023-08-01T00:41:38;98850.22;;;14.30;95.63
77410;BME280;66481;51.332;22.804;2023-08-01T00:45:39;98844.22;;;14.28;96.74
77410;BME280;66481;51.332;22.804;2023-08-01T00:49:40;98835.63;;;14.35;95.55
77410;BME280;66481;51.332;22.804;2023-08-01T00:53:41;98832.09;;;14.34;95.04
77410;BME280;66481;51.332;22.804;2023-08-01T00:57:42;98831.13;;;14.35;95.71
77410;BME280;66481;51.332;22.804;2023-08-01T01:01:44;98827.94;;;14.32;95.44
77410;BME280;66481;51.332;22.804;2023-08-01T01:06:09;98827.16;;;14.13;96.55
77410;BME280;66481;51.332;22.804;2023-08-01T01:10:12;98828.81;;;14.06;97.17
77410;BME280;66481;51.332;22.804;2023-08-01T01:14:13;98821.13;;;14.03;96.83
77410;BME280;66481;51.332;22.804;2023-08-01T01:18:13;98824.66;;;14.03;97.00
77410;BME280;66481;51.332;22.804;2023-08-01T01:22:15;98821.78;;;13.97;97.30
77410;BME280;66481;51.332;22.804;2023-08-01T01:26:17;98818.59;;;13.93;98.30
77410;BME280;66481;51.332;22.804;2023-08-01T01:30:22;98815.34;;;13.81;98.08
77410;BME280;66481;51.332;22.804;2023-08-01T01:34:23;98814.16;;;13.76;98.65
77410;BME280;66481;51.332;22.804;2023-08-01T01:38:25;98811.66;;;13.74;99.06
77410;BME280;66481;51.332;22.804;2023-08-01T01:42:26;98805.47;;;13.73;99.18
77410;BME280;66481;51.332;22.804;2023-08-01T01:46:27;98801.31;;;13.71;98.81
77410;BME280;66481;51.332;22.804;2023-08-01T01:50:30;98800.69;;;13.77;98.67
77410;BME280;66481;51.332;22.804;2023-08-01T01:54:31;98798.00;;;13.69;99.26
77410;BME280;66481;51.332;22.804;2023-08-01T01:58:32;98796.25;;;13.60;100.00
77410;BME280;66481;51.332;22.804;2023-08-01T02:02:33;98789.75;;;13.54;100.00
77410;BME280;66481;51.332;22.804;2023-08-01T02:06:34;98789.88;;;13.52;100.00
77410;BME280;66481;51.332;22.804;2023-08-01T02:10:35;98785.94;;;13.57;100.00
77410;BME280;66481;51.332;22.804;2023-08-01T02:14:36;98786.47;;;13.60;99.68
77410;BME280;66481;51.332;22.804;2023-08-01T02:18:37;98784.50;;;13.62;99.87
77410;BME280;66481;51.332;22.804;2023-08-01T02:22:38;98789.50;;;13.65;99.46
77410;BME280;66481;51.332;22.804;2023-08-01T02:26:39;98791.97;;;13.67;100.00
77410;BME280;66481;51.332;22.804;2023-08-01T02:30:40;98777.19;;;13.64;99.98
77410;BME280;66481;51.332;22.804;2023-08-01T02:34:41;98775.84;;;13.60;99.23
77410;BME280;66481;51.332;22.804;2023-08-01T02:38:41;98770.69;;;13.59;99.37
77410;BME280;66481;51.332;22.804;2023-08-01T02:42:42;98766.50;;;13.56;99.77
77410;BME280;66481;51.332;22.804;2023-08-01T02:46:43;98769.00;;;13.58;100.00
77410;BME280;66481;51.332;22.804;2023-08-01T02:50:45;98765.28;;;13.50;100.00
77410;BME280;66481;51.332;22.804;2023-08-01T02:54:46;98750.66;;;13.46;100.00
77410;BME280;66481;51.332;22.804;2023-08-01T02:58:48;98755.28;;;13.44;100.00
77410;BME280;66481;51.332;22.804;2023-08-01T03:02:49;98748.63;;;13.40;100.00
77410;BME280;66481;51.332;22.804;2023-08-01T03:06:51;98752.63;;;13.44;100.00
77410;BME280;66481;51.332;22.804;2023-08-01T03:10:53;98749.13;;;13.44;100.00
77410;BME280;66481;51.332;22.804;2023-08-01T03:14:55;98747.47;;;13.43;100.00
77410;BME280;66481;51.332;22.804;2023-08-01T03:18:55;98741.16;;;13.44;100.00
77410;BME280;66481;51.332;22.804;2023-08-01T03:22:56;98743.66;;;13.45;100.00
77410;BME280;66481;51.332;22.804;2023-08-01T03:26:57;98741.16;;;13.70;100.00
77410;BME280;66481;51.332;22.804;2023-08-01T03:30:58;98744.69;;;14.13;99.64
77410;BME280;66481;51.332;22.804;2023-08-01T03:34:59;98719.38;;;14.52;97.40
77410;BME280;66481;51.332;22.804;2023-08-01T03:39:00;98729.94;;;14.78;95.68
77410;BME280;66481;51.332;22.804;2023-08-01T03:43:01;98726.81;;;15.07;94.42
77410;BME280;66481;51.332;22.804;2023-08-01T03:47:02;98718.13;;;16.02;90.89
77410;BME280;66481;51.332;22.804;2023-08-01T03:51:03;98719.16;;;16.41;87.48
77410;BME280;66481;51.332;22.804;2023-08-01T03:55:05;98715.03;;;17.07;85.34
77410;BME280;66481;51.332;22.804;2023-08-01T03:59:08;98712.84;;;17.11;84.60
77410;BME280;66481;51.332;22.804;2023-08-01T04:03:09;98702.34;;;17.09;84.68
77410;BME280;66481;51.332;22.804;2023-08-01T04:07:09;98695.34;;;16.85;84.39
77410;BME280;66481;51.332;22.804;2023-08-01T04:11:10;98698.16;;;16.61;86.10
77410;BME280;66481;51.332;22.804;2023-08-01T04:15:12;98694.19;;;16.57;86.72
77410;BME280;66481;51.332;22.804;2023-08-01T04:19:13;98686.75;;;18.47;83.42
77410;BME280;66481;51.332;22.804;2023-08-01T04:23:13;98687.84;;;19.74;76.38
77410;BME280;66481;51.332;22.804;2023-08-01T04:27:14;98685.00;;;20.24;72.83
77410;BME280;66481;51.332;22.804;2023-08-01T04:31:15;98679.41;;;21.20;71.75
77410;BME280;66481;51.332;22.804;2023-08-01T04:35:16;98676.66;;;21.74;67.00
77410;BME280;66481;51.332;22.804;2023-08-01T04:39:17;98680.22;;;20.94;70.40
77410;BME280;66481;51.332;22.804;2023-08-01T04:43:18;98676.09;;;20.85;70.09
77410;BME280;66481;51.332;22.804;2023-08-01T04:47:19;98659.13;;;21.18;70.03
77410;BME280;66481;51.332;22.804;2023-08-01T04:51:20;98653.75;;;21.04;68.69
77410;BME280;66481;51.332;22.804;2023-08-01T04:55:21;98667.50;;;22.40;66.95
77410;BME280;66481;51.332;22.804;2023-08-01T04:59:22;98649.94;;;23.20;64.87
77410;BME280;66481;51.332;22.804;2023-08-01T05:03:23;98653.16;;;23.54;62.04
77410;BME280;66481;51.332;22.804;2023-08-01T05:07:27;98649.59;;;23.97;61.47
77410;BME280;66481;51.332;22.804;2023-08-01T05:11:28;98645.31;;;24.08;59.52
77410;BME280;66481;51.332;22.804;2023-08-01T05:15:30;98647.28;;;24.00;60.20
77410;BME280;66481;51.332;22.804;2023-08-01T05:19:31;98646.75;;;23.92;60.51
77410;BME280;66481;51.332;22.804;2023-08-01T05:23:32;98637.69;;;24.77;59.03
77410;BME280;66481;51.332;22.804;2023-08-01T05:27:33;98638.97;;;25.28;57.68
77410;BME280;66481;51.332;22.804;2023-08-01T05:31:35;98628.72;;;25.42;57.09
77410;BME280;66481;51.332;22.804;2023-08-01T05:35:36;98633.81;;;25.91;55.47
77410;BME280;66481;51.332;22.804;2023-08-01T05:39:37;98626.59;;;25.56;56.56
77410;BME280;66481;51.332;22.804;2023-08-01T05:43:41;98627.97;;;25.00;56.09
77410;BME280;66481;51.332;22.804;2023-08-01T05:47:43;98632.47;;;25.53;54.93
77410;BME280;66481;51.332;22.804;2023-08-01T05:51:44;98629.50;;;27.10;52.16
77410;BME280;66481;51.332;22.804;2023-08-01T05:55:45;98626.69;;;26.71;51.17
77410;BME280;66481;51.332;22.804;2023-08-01T05:59:46;98626.97;;;26.00;52.46
77410;BME280;66481;51.332;22.804;2023-08-01T06:03:46;98618.25;;;26.56;52.29
77410;BME280;66481;51.332;22.804;2023-08-01T06:07:47;98611.09;;;25.92;52.85
77410;BME280;66481;51.332;22.804;2023-08-01T06:11:48;98604.78;;;25.63;54.84
77410;BME280;66481;51.332;22.804;2023-08-01T06:15:49;98597.69;;;26.14;52.53
77410;BME280;66481;51.332;22.804;2023-08-01T06:19:50;98592.97;;;26.84;51.72
77410;BME280;66481;51.332;22.804;2023-08-01T06:23:53;98591.41;;;26.71;50.26
77410;BME280;66481;51.332;22.804;2023-08-01T06:27:53;98597.81;;;26.99;50.99
77410;BME280;66481;51.332;22.804;2023-08-01T06:31:55;98610.09;;;26.85;50.11
77410;BME280;66481;51.332;22.804;2023-08-01T06:35:56;98587.09;;;28.09;49.70
77410;BME280;66481;51.332;22.804;2023-08-01T06:39:58;98582.09;;;28.28;47.75
77410;BME280;66481;51.332;22.804;2023-08-01T06:43:59;98584.44;;;26.01;50.21
77410;BME280;66481;51.332;22.804;2023-08-01T06:48:00;98573.28;;;26.94;48.53
77410;BME280;66481;51.332;22.804;2023-08-01T06:52:01;98578.59;;;26.67;48.54
77410;BME280;66481;51.332;22.804;2023-08-01T06:56:02;98562.03;;;27.02;48.49
77410;BME280;66481;51.332;22.804;2023-08-01T07:00:03;98554.44;;;27.87;46.70
77410;BME280;66481;51.332;22.804;2023-08-01T07:04:05;98557.00;;;27.94;47.21
77410;BME280;66481;51.332;22.804;2023-08-01T07:08:06;98559.50;;;27.79;46.02
77410;BME280;66481;51.332;22.804;2023-08-01T07:12:07;98548.34;;;27.31;46.77
77410;BME280;66481;51.332;22.804;2023-08-01T07:16:08;98542.09;;;29.26;43.16
77410;BME280;66481;51.332;22.804;2023-08-01T07:20:10;98544.38;;;27.61;45.59
77410;BME280;66481;51.332;22.804;2023-08-01T07:24:12;98547.13;;;27.44;45.98
77410;BME280;66481;51.332;22.804;2023-08-01T07:28:15;98542.94;;;26.97;48.72
77410;BME280;66481;51.332;22.804;2023-08-01T07:32:16;98537.69;;;26.73;47.42
77410;BME280;66481;51.332;22.804;2023-08-01T07:36:17;98534.88;;;27.63;46.63
77410;BME280;66481;51.332;22.804;2023-08-01T07:40:18;98526.41;;;28.36;44.29
77410;BME280;66481;51.332;22.804;2023-08-01T07:44:19;98530.25;;;28.40;44.14
77410;BME280;66481;51.332;22.804;2023-08-01T07:48:20;98527.19;;;28.04;44.45
77410;BME280;66481;51.332;22.804;2023-08-01T07:52:21;98518.56;;;28.40;44.27
77410;BME280;66481;51.332;22.804;2023-08-01T07:56:23;98508.88;;;28.54;44.40
77410;BME280;66481;51.332;22.804;2023-08-01T08:00:24;98506.50;;;29.63;42.95
77410;BME280;66481;51.332;22.804;2023-08-01T08:04:25;98533.22;;;28.39;43.12
77410;BME280;66481;51.332;22.804;2023-08-01T08:08:26;98513.34;;;28.70;43.62
77410;BME280;66481;51.332;22.804;2023-08-01T08:12:28;98491.91;;;30.21;43.10
77410;BME280;66481;51.332;22.804;2023-08-01T08:16:29;98499.84;;;27.67;46.53
77410;BME280;66481;51.332;22.804;2023-08-01T08:20:31;98493.81;;;26.98;48.44
77410;BME280;66481;51.332;22.804;2023-08-01T08:24:32;98504.69;;;26.98;48.69
77410;BME280;66481;51.332;22.804;2023-08-01T08:28:36;98494.94;;;27.64;47.58
77410;BME280;66481;51.332;22.804;2023-08-01T08:32:37;98492.59;;;26.21;51.74
77410;BME280;66481;51.332;22.804;2023-08-01T08:36:38;98497.19;;;25.75;50.90
77410;BME280;66481;51.332;22.804;2023-08-01T08:40:41;98479.13;;;25.81;53.29
77410;BME280;66481;51.332;22.804;2023-08-01T08:44:46;98491.31;;;27.58;51.59
77410;BME280;66481;51.332;22.804;2023-08-01T08:48:50;98478.50;;;28.35;45.79
77410;BME280;66481;51.332;22.804;2023-08-01T08:52:52;98476.06;;;27.79;47.52
77410;BME280;66481;51.332;22.804;2023-08-01T08:56:53;98493.75;;;27.32;48.31
77410;BME280;66481;51.332;22.804;2023-08-01T09:00:56;98475.63;;;26.77;50.49
77410;BME280;66481;51.332;22.804;2023-08-01T09:04:58;98475.41;;;26.83;51.12
77410;BME280;66481;51.332;22.804;2023-08-01T09:09:04;98472.66;;;26.44;49.44
77410;BME280;66481;51.332;22.804;2023-08-01T09:13:09;98467.13;;;26.05;52.42
77410;BME280;66481;51.332;22.804;2023-08-01T09:17:10;98466.84;;;25.61;53.44
77410;BME280;66481;51.332;22.804;2023-08-01T09:21:12;98466.63;;;25.80;52.58
77410;BME280;66481;51.332;22.804;2023-08-01T09:25:13;98455.16;;;26.18;53.08
77410;BME280;66481;51.332;22.804;2023-08-01T09:29:18;98446.56;;;26.43;51.96
77410;BME280;66481;51.332;22.804;2023-08-01T09:33:19;98442.41;;;26.92;50.34
77410;BME280;66481;51.332;22.804;2023-08-01T09:37:20;98424.56;;;27.40;49.73
77410;BME280;66481;51.332;22.804;2023-08-01T09:41:21;98429.94;;;25.89;53.15
77410;BME280;66481;51.332;22.804;2023-08-01T09:45:22;98414.16;;;27.86;50.69
77410;BME280;66481;51.332;22.804;2023-08-01T09:49:24;98432.88;;;26.89;49.99
77410;BME280;66481;51.332;22.804;2023-08-01T09:53:25;98435.53;;;26.84;51.39
77410;BME280;66481;51.332;22.804;2023-08-01T09:57:30;98414.72;;;26.34;52.05
77410;BME280;66481;51.332;22.804;2023-08-01T10:01:32;98415.91;;;25.92;53.33
77410;BME280;66481;51.332;22.804;2023-08-01T10:05:35;98409.53;;;25.98;54.51
77410;BME280;66481;51.332;22.804;2023-08-01T10:09:41;98403.78;;;26.12;54.06
77410;BME280;66481;51.332;22.804;2023-08-01T10:13:43;98398.38;;;25.66;54.92
77410;BME280;66481;51.332;22.804;2023-08-01T10:17:44;98402.88;;;26.06;55.75
77410;BME280;66481;51.332;22.804;2023-08-01T10:21:47;98398.88;;;25.34;55.16
77410;BME280;66481;51.332;22.804;2023-08-01T10:25:48;98407.88;;;25.51;55.27
77410;BME280;66481;51.332;22.804;2023-08-01T10:30:00;98392.31;;;25.18;56.80
77410;BME280;66481;51.332;22.804;2023-08-01T10:34:13;98386.91;;;25.47;55.85
77410;BME280;66481;51.332;22.804;2023-08-01T10:38:14;98383.38;;;25.92;56.70
77410;BME280;66481;51.332;22.804;2023-08-01T10:42:15;98379.72;;;25.69;57.02
77410;BME280;66481;51.332;22.804;2023-08-01T10:46:17;98369.22;;;25.56;56.77
77410;BME280;66481;51.332;22.804;2023-08-01T10:50:18;98371.59;;;25.52;58.26
77410;BME280;66481;51.332;22.804;2023-08-01T10:54:25;98364.38;;;25.29;57.00
77410;BME280;66481;51.332;22.804;2023-08-01T10:58:26;98361.13;;;24.87;57.78
77410;BME280;66481;51.332;22.804;2023-08-01T11:02:30;98359.78;;;25.01;57.68
77410;BME280;66481;51.332;22.804;2023-08-01T11:06:30;98372.88;;;24.81;57.78
77410;BME280;66481;51.332;22.804;2023-08-01T11:10:32;98362.16;;;24.86;56.05
77410;BME280;66481;51.332;22.804;2023-08-01T11:14:33;98359.81;;;24.89;56.15
77410;BME280;66481;51.332;22.804;2023-08-01T11:18:44;98364.63;;;24.87;57.06
77410;BME280;66481;51.332;22.804;2023-08-01T11:22:59;98360.91;;;25.05;56.63
77410;BME280;66481;51.332;22.804;2023-08-01T11:27:05;98356.94;;;25.37;56.89
77410;BME280;66481;51.332;22.804;2023-08-01T11:31:13;98347.56;;;24.99;57.23
77410;BME280;66481;51.332;22.804;2023-08-01T11:35:18;98356.00;;;25.02;58.04
77410;BME280;66481;51.332;22.804;2023-08-01T11:39:20;98344.63;;;25.17;54.31
77410;BME280;66481;51.332;22.804;2023-08-01T11:43:23;98352.44;;;25.13;56.18
77410;BME280;66481;51.332;22.804;2023-08-01T11:47:24;98350.09;;;25.05;56.45
77410;BME280;66481;51.332;22.804;2023-08-01T11:51:25;98349.53;;;25.03;57.42
77410;BME280;66481;51.332;22.804;2023-08-01T11:55:27;98351.38;;;24.74;59.68
77410;BME280;66481;51.332;22.804;2023-08-01T11:59:28;98353.03;;;24.75;59.56
77410;BME280;66481;51.332;22.804;2023-08-01T12:03:29;98355.16;;;24.73;60.03
77410;BME280;66481;51.332;22.804;2023-08-01T12:07:30;98355.66;;;24.23;62.38
77410;BME280;66481;51.332;22.804;2023-08-01T12:11:31;98359.38;;;23.86;63.56
77410;BME280;66481;51.332;22.804;2023-08-01T12:15:32;98359.91;;;23.64;63.86
77410;BME280;66481;51.332;22.804;2023-08-01T12:19:33;98361.06;;;23.69;63.68
77410;BME280;66481;51.332;22.804;2023-08-01T12:23:37;98353.72;;;23.76;63.69
77410;BME280;66481;51.332;22.804;2023-08-01T12:27:37;98340.19;;;23.76;62.71
77410;BME280;66481;51.332;22.804;2023-08-01T12:31:38;98350.00;;;23.89;62.14
77410;BME280;66481;51.332;22.804;2023-08-01T12:35:40;98356.91;;;23.96;62.79
77410;BME280;66481;51.332;22.804;2023-08-01T12:39:41;98350.00;;;24.24;62.73
77410;BME280;66481;51.332;22.804;2023-08-01T12:43:43;98351.75;;;24.66;59.90
77410;BME280;66481;51.332;22.804;2023-08-01T12:47:44;98345.88;;;24.45;60.14
77410;BME280;66481;51.332;22.804;2023-08-01T12:51:45;98341.28;;;24.10;61.55
77410;BME280;66481;51.332;22.804;2023-08-01T12:55:47;98340.94;;;24.30;58.96
77410;BME280;66481;51.332;22.804;2023-08-01T12:59:49;98339.28;;;24.29;58.45
77410;BME280;66481;51.332;22.804;2023-08-01T13:03:50;98343.72;;;25.11;56.26
77410;BME280;66481;51.332;22.804;2023-08-01T13:07:51;98333.63;;;24.78;57.28
77410;BME280;66481;51.332;22.804;2023-08-01T13:11:52;98331.50;;;24.68;56.19
77410;BME280;66481;51.332;22.804;2023-08-01T13:15:56;98324.72;;;24.66;56.16
77410;BME280;66481;51.332;22.804;2023-08-01T13:20:00;98335.06;;;24.57;56.25
77410;BME280;66481;51.332;22.804;2023-08-01T13:24:02;98322.53;;;25.08;56.69
77410;BME280;66481;51.332;22.804;2023-08-01T13:28:05;98322.47;;;25.32;56.99
77410;BME280;66481;51.332;22.804;2023-08-01T13:32:07;98315.31;;;24.97;57.67
77410;BME280;66481;51.332;22.804;2023-08-01T13:36:09;98327.75;;;24.46;57.99
77410;BME280;66481;51.332;22.804;2023-08-01T13:40:11;98313.34;;;24.81;55.98
77410;BME280;66481;51.332;22.804;2023-08-01T13:44:14;98306.34;;;24.68;56.93
77410;BME280;66481;51.332;22.804;2023-08-01T13:48:16;98311.06;;;24.49;58.28
77410;BME280;66481;51.332;22.804;2023-08-01T13:52:17;98298.81;;;24.70;57.60
77410;BME280;66481;51.332;22.804;2023-08-01T13:56:18;98305.94;;;24.76;57.71
77410;BME280;66481;51.332;22.804;2023-08-01T14:00:19;98289.78;;;24.64;58.46
77410;BME280;66481;51.332;22.804;2023-08-01T14:04:20;98294.50;;;24.45;57.91
77410;BME280;66481;51.332;22.804;2023-08-01T14:08:22;98297.22;;;24.21;57.02
77410;BME280;66481;51.332;22.804;2023-08-01T14:12:23;98287.97;;;24.17;56.53
77410;BME280;66481;51.332;22.804;2023-08-01T14:16:25;98297.50;;;23.84;57.32
77410;BME280;66481;51.332;22.804;2023-08-01T14:20:26;98304.88;;;23.89;57.01
77410;BME280;66481;51.332;22.804;2023-08-01T14:24:27;98291.34;;;23.89;56.61
77410;BME280;66481;51.332;22.804;2023-08-01T14:28:28;98294.94;;;23.59;57.49
77410;BME280;66481;51.332;22.804;2023-08-01T14:32:29;98297.13;;;23.39;58.03
77410;BME280;66481;51.332;22.804;2023-08-01T14:36:30;98296.34;;;23.38;59.01
77410;BME280;66481;51.332;22.804;2023-08-01T14:40:34;98296.63;;;23.18;59.31
77410;BME280;66481;51.332;22.804;2023-08-01T14:44:36;98299.22;;;23.25;60.23
77410;BME280;66481;51.332;22.804;2023-08-01T14:48:37;98296.13;;;23.09;61.13
77410;BME280;66481;51.332;22.804;2023-08-01T14:52:39;98293.97;;;23.00;62.39
77410;BME280;66481;51.332;22.804;2023-08-01T14:56:40;98283.59;;;22.66;63.29
77410;BME280;66481;51.332;22.804;2023-08-01T15:00:41;98281.81;;;22.60;63.78
77410;BME280;66481;51.332;22.804;2023-08-01T15:04:42;98279.06;;;22.48;63.55
77410;BME280;66481;51.332;22.804;2023-08-01T15:08:43;98275.16;;;22.44;64.72
77410;BME280;66481;51.332;22.804;2023-08-01T15:12:47;98272.91;;;22.41;64.02
77410;BME280;66481;51.332;22.804;2023-08-01T15:16:49;98262.78;;;22.55;63.93
77410;BME280;66481;51.332;22.804;2023-08-01T15:20:50;98263.97;;;22.59;63.52
77410;BME280;66481;51.332;22.804;2023-08-01T15:24:51;98262.00;;;22.66;64.84
77410;BME280;66481;51.332;22.804;2023-08-01T15:28:53;98265.34;;;22.68;64.62
77410;BME280;66481;51.332;22.804;2023-08-01T15:32:54;98269.38;;;22.59;65.64
77410;BME280;66481;51.332;22.804;2023-08-01T15:36:55;98270.19;;;22.60;65.62
77410;BME280;66481;51.332;22.804;2023-08-01T15:40:56;98275.97;;;22.45;65.85
77410;BME280;66481;51.332;22.804;2023-08-01T15:44:57;98264.28;;;22.51;67.24
77410;BME280;66481;51.332;22.804;2023-08-01T15:49:00;98263.47;;;22.50;65.80
77410;BME280;66481;51.332;22.804;2023-08-01T15:53:02;98264.84;;;22.41;65.87
77410;BME280;66481;51.332;22.804;2023-08-01T15:57:04;98248.66;;;22.41;65.83
77410;BME280;66481;51.332;22.804;2023-08-01T16:01:06;98228.28;;;22.08;67.50
77410;BME280;66481;51.332;22.804;2023-08-01T16:05:09;98235.25;;;21.97;71.25
77410;BME280;66481;51.332;22.804;2023-08-01T16:09:10;98240.66;;;21.72;72.84
77410;BME280;66481;51.332;22.804;2023-08-01T16:13:12;98239.34;;;21.56;75.25
77410;BME280;66481;51.332;22.804;2023-08-01T16:17:12;98234.56;;;21.58;77.07
77410;BME280;66481;51.332;22.804;2023-08-01T16:21:13;98248.47;;;21.55;75.00
77410;BME280;66481;51.332;22.804;2023-08-01T16:25:15;98242.00;;;21.63;74.71
77410;BME280;66481;51.332;22.804;2023-08-01T16:29:16;98242.38;;;21.67;76.68
77410;BME280;66481;51.332;22.804;2023-08-01T16:33:17;98254.97;;;21.48;76.25
77410;BME280;66481;51.332;22.804;2023-08-01T16:37:18;98243.28;;;21.29;78.45
77410;BME280;66481;51.332;22.804;2023-08-01T16:41:20;98240.25;;;21.18;78.03
77410;BME280;66481;51.332;22.804;2023-08-01T16:45:23;98243.38;;;21.15;77.31
77410;BME280;66481;51.332;22.804;2023-08-01T16:49:26;98242.22;;;21.30;79.17
77410;BME280;66481;51.332;22.804;2023-08-01T16:53:27;98236.88;;;21.23;79.24
77410;BME280;66481;51.332;22.804;2023-08-01T16:57:28;98250.59;;;21.21;78.65
77410;BME280;66481;51.332;22.804;2023-08-01T17:01:29;98246.34;;;21.00;79.24
77410;BME280;66481;51.332;22.804;2023-08-01T17:05:31;98254.94;;;20.84;78.80
77410;BME280;66481;51.332;22.804;2023-08-01T17:09:33;98243.66;;;20.69;79.32
77410;BME280;66481;51.332;22.804;2023-08-01T17:13:35;98242.03;;;20.61;79.96
77410;BME280;66481;51.332;22.804;2023-08-01T17:17:36;98244.75;;;20.54;80.38
77410;BME280;66481;51.332;22.804;2023-08-01T17:21:37;98255.97;;;20.38;80.90
77410;BME280;66481;51.332;22.804;2023-08-01T17:25:38;98266.31;;;20.34;81.84
77410;BME280;66481;51.332;22.804;2023-08-01T17:29:39;98259.16;;;20.15;83.61
77410;BME280;66481;51.332;22.804;2023-08-01T17:33:41;98261.25;;;19.99;84.98
77410;BME280;66481;51.332;22.804;2023-08-01T17:37:43;98273.00;;;19.98;86.18
77410;BME280;66481;51.332;22.804;2023-08-01T17:41:45;98280.69;;;19.75;87.81
77410;BME280;66481;51.332;22.804;2023-08-01T17:45:47;98303.16;;;19.60;88.39
77410;BME280;66481;51.332;22.804;2023-08-01T17:49:48;98301.31;;;19.54;88.95
77410;BME280;66481;51.332;22.804;2023-08-01T17:53:50;98291.59;;;19.46;89.55
77410;BME280;66481;51.332;22.804;2023-08-01T17:57:52;98295.72;;;19.35;90.06
77410;BME280;66481;51.332;22.804;2023-08-01T18:01:53;98289.31;;;19.23;90.33
77410;BME280;66481;51.332;22.804;2023-08-01T18:06:13;98299.19;;;19.16;90.79
77410;BME280;66481;51.332;22.804;2023-08-01T18:10:15;98303.72;;;19.09;90.84
77410;BME280;66481;51.332;22.804;2023-08-01T18:14:17;98311.78;;;19.09;90.84
77410;BME280;66481;51.332;22.804;2023-08-01T18:18:19;98301.25;;;19.07;91.27
77410;BME280;66481;51.332;22.804;2023-08-01T18:22:21;98304.56;;;19.09;91.55
77410;BME280;66481;51.332;22.804;2023-08-01T18:26:23;98309.69;;;19.04;92.00
77410;BME280;66481;51.332;22.804;2023-08-01T18:30:30;98318.09;;;18.94;92.48
77410;BME280;66481;51.332;22.804;2023-08-01T18:34:34;98317.50;;;18.99;94.09
77410;BME280;66481;51.332;22.804;2023-08-01T18:38:35;98304.94;;;19.00;94.34
77410;BME280;66481;51.332;22.804;2023-08-01T18:42:36;98312.31;;;18.91;95.01
77410;BME280;66481;51.332;22.804;2023-08-01T18:46:37;98314.53;;;18.80;95.00
77410;BME280;66481;51.332;22.804;2023-08-01T18:50:41;98324.78;;;18.70;94.55
77410;BME280;66481;51.332;22.804;2023-08-01T18:54:42;98310.09;;;18.53;95.54
77410;BME280;66481;51.332;22.804;2023-08-01T18:58:43;98322.63;;;18.46;96.40
77410;BME280;66481;51.332;22.804;2023-08-01T19:02:44;98333.31;;;18.39;96.68
77410;BME280;66481;51.332;22.804;2023-08-01T19:06:45;98344.19;;;18.31;97.67
77410;BME280;66481;51.332;22.804;2023-08-01T19:10:48;98345.31;;;18.15;97.99
77410;BME280;66481;51.332;22.804;2023-08-01T19:14:48;98332.78;;;18.15;97.41
77410;BME280;66481;51.332;22.804;2023-08-01T19:18:50;98343.38;;;18.02;97.32
77410;BME280;66481;51.332;22.804;2023-08-01T19:22:51;98351.59;;;18.00;96.54
77410;BME280;66481;51.332;22.804;2023-08-01T19:26:53;98353.66;;;17.98;96.95
77410;BME280;66481;51.332;22.804;2023-08-01T19:30:54;98359.38;;;17.95;98.29
77410;BME280;66481;51.332;22.804;2023-08-01T19:34:55;98358.38;;;17.96;98.63
77410;BME280;66481;51.332;22.804;2023-08-01T19:38:58;98349.25;;;17.91;97.38
77410;BME280;66481;51.332;22.804;2023-08-01T19:42:59;98361.00;;;17.90;97.60
77410;BME280;66481;51.332;22.804;2023-08-01T19:47:01;98369.75;;;17.83;97.54
77410;BME280;66481;51.332;22.804;2023-08-01T19:51:03;98369.50;;;17.78;98.46
77410;BME280;66481;51.332;22.804;2023-08-01T19:55:04;98380.81;;;17.74;98.42
77410;BME280;66481;51.332;22.804;2023-08-01T19:59:06;98387.72;;;17.68;99.01
77410;BME280;66481;51.332;22.804;2023-08-01T20:03:07;98374.78;;;17.72;98.54
77410;BME280;66481;51.332;22.804;2023-08-01T20:07:08;98391.44;;;17.67;98.18
77410;BME280;66481;51.332;22.804;2023-08-01T20:11:10;98389.06;;;17.57;98.28
77410;BME280;66481;51.332;22.804;2023-08-01T20:15:11;98384.97;;;17.61;96.76
77410;BME280;66481;51.332;22.804;2023-08-01T20:19:12;98385.81;;;17.40;97.53
77410;BME280;66481;51.332;22.804;2023-08-01T20:23:15;98393.72;;;17.27;98.03
77410;BME280;66481;51.332;22.804;2023-08-01T20:27:16;98386.63;;;17.19;99.26
77410;BME280;66481;51.332;22.804;2023-08-01T20:31:18;98381.97;;;17.06;99.58
77410;BME280;66481;51.332;22.804;2023-08-01T20:35:20;98382.00;;;16.77;100.00
77410;BME280;66481;51.332;22.804;2023-08-01T20:39:21;98384.13;;;16.66;100.00
77410;BME280;66481;51.332;22.804;2023-08-01T20:43:27;98399.94;;;16.53;100.00
77410;BME280;66481;51.332;22.804;2023-08-01T20:47:29;98407.19;;;16.59;100.00
77410;BME280;66481;51.332;22.804;2023-08-01T20:51:32;98412.56;;;16.44;100.00
77410;BME280;66481;51.332;22.804;2023-08-01T20:55:34;98413.09;;;16.25;100.00
77410;BME280;66481;51.332;22.804;2023-08-01T20:59:35;98421.28;;;16.23;100.00
77410;BME280;66481;51.332;22.804;2023-08-01T21:03:36;98440.25;;;16.28;100.00